< < Back
Terminal Aerodrome Forecast


Current Version              Previous Versions:   1  2  3  4  5  6  7  8  9  

Terminal Aerodrome Forecast

029
FTUS44 KBMX 272000 AAA
TAFANB
TAF AMD
KANB 272005Z 2720/2818 34010G20KT P6SM SCT050
     FM280100 35004KT P6SM SCT030
     FM281500 03004KT P6SM SCT030=

Latest METAR

769
SAUS70 KWBC 281156
MTRANB
METAR KANB 281153Z AUTO 00000KT 10SM CLR 01/M03 A3025 RMK AO2 SLP250
T00111033 10033 20006 53018


USA.gov is the U.S. government's official web portal to all federal, state and local government web resources and services.